Time;durP1;ratioP1;P1;durP2;ratioP2;P2;SDS_P1;SDS_P2;PMS_P1;PMS_P2;Temp;Humidity;BMP_temperature;BMP_pressure;BME280_temperature;BME280_humidity;BME280_pressure;Samples;Min_cycle;Max_cycle;Signal;HPM_P1;HPM_P2
2022/10/06 00:01:32;;;;;;;0.85;0.85;;;;;;;;;;5055861;28;20036;-75
2022/10/06 00:03:58;;;;;;;0.28;0.28;;;;;;;;;;5074867;28;20024;-75
2022/10/06 00:06:23;;;;;;;0.38;0.38;;;;;;;;;;5074285;28;20555;-75
2022/10/06 00:08:49;;;;;;;0.20;0.20;;;;;;;;;;5074731;28;20021;-75
2022/10/06 00:11:15;;;;;;;1.65;1.50;;;;;;;;;;5073295;28;20036;-75
2022/10/06 00:13:40;;;;;;;0.20;0.20;;;;;;;;;;5074177;28;20040;-76
2022/10/06 00:16:10;;;;;;;0.20;0.20;;;;;;;;;;5073337;28;20135;-76
2022/10/06 00:18:35;;;;;;;;;;;;;;;;;;5074848;28;20047;-77
2022/10/06 00:21:01;;;;;;;0.30;0.30;;;;;;;;;;5074366;28;19908;-78
2022/10/06 00:23:27;;;;;;;0.20;0.20;;;;;;;;;;5073807;28;20071;-74
2022/10/06 00:25:52;;;;;;;0.10;0.10;;;;;;;;;;5074308;28;20024;-74
2022/10/06 00:28:18;;;;;;;0.20;0.20;;;;;;;;;;5056404;28;20119;-75
2022/10/06 00:30:45;;;;;;;0.63;0.63;;;;;;;;;;5056117;28;20032;-75
2022/10/06 00:33:11;;;;;;;3.22;3.03;;;;;;;;;;5074135;28;20016;-75
2022/10/06 00:35:37;;;;;;;0.13;0.13;;;;;;;;;;5074521;28;20028;-74
2022/10/06 00:38:02;;;;;;;0.20;0.20;;;;;;;;;;5073943;28;20040;-75
2022/10/06 00:40:28;;;;;;;0.10;0.10;;;;;;;;;;5073930;28;20031;-76
2022/10/06 00:43:05;;;;;;;0.20;0.20;;;;;;;;;;5055844;28;20480;-74
2022/10/06 00:45:33;;;;;;;0.90;0.90;;;;;;;;;;5073661;28;20539;-75
2022/10/06 00:48:01;;;;;;;0.20;0.20;;;;;;;;;;5074374;28;20531;-74
2022/10/06 00:50:27;;;;;;;0.20;0.20;;;;;;;;;;5074198;28;20020;-75
2022/10/06 00:52:54;;;;;;;1.20;1.20;;;;;;;;;;5055326;28;20036;-74
2022/10/06 00:55:21;;;;;;;0.20;0.20;;;;;;;;;;5073949;28;20481;-75
2022/10/06 00:57:47;;;;;;;0.20;0.20;;;;;;;;;;5073838;28;20024;-75
2022/10/06 01:00:13;;;;;;;0.20;0.20;;;;;;;;;;5073672;28;20107;-76
2022/10/06 01:02:45;;;;;;;0.20;0.20;;;;;;;;;;5055848;28;20128;-75
2022/10/06 01:05:14;;;;;;;0.20;0.20;;;;;;;;;;5055886;28;20025;-76
2022/10/06 01:07:39;;;;;;;0.10;0.10;;;;;;;;;;5073835;28;20120;-77
2022/10/06 01:10:05;;;;;;;0.20;0.20;;;;;;;;;;5073655;28;20099;-76
2022/10/06 01:12:32;;;;;;;0.20;0.20;;;;;;;;;;5055189;28;20105;-77
2022/10/06 01:14:57;;;;;;;1.08;1.08;;;;;;;;;;5054893;28;20059;-77
2022/10/06 01:17:30;;;;;;;0.20;0.20;;;;;;;;;;5073708;28;20047;-76
2022/10/06 01:20:01;;;;;;;0.13;0.13;;;;;;;;;;5055657;28;20056;-76
2022/10/06 01:22:31;;;;;;;0.30;0.30;;;;;;;;;;5055511;28;20442;-76
2022/10/06 01:24:57;;;;;;;0.20;0.20;;;;;;;;;;5073267;28;20028;-75
2022/10/06 01:27:24;;;;;;;0.10;0.10;;;;;;;;;;5071937;28;20078;-76
2022/10/06 01:29:53;;;;;;;0.20;0.20;;;;;;;;;;5073062;28;20545;-75
2022/10/06 01:32:19;;;;;;;;;;;;;;;;;;5073640;28;20356;-75
2022/10/06 01:34:44;;;;;;;0.20;0.20;;;;;;;;;;5055415;28;19954;-75
2022/10/06 01:37:10;;;;;;;0.20;0.20;;;;;;;;;;5055286;28;20278;-75
2022/10/06 01:39:35;;;;;;;0.10;0.10;;;;;;;;;;5054866;28;20036;-75
2022/10/06 01:42:01;;;;;;;0.17;0.17;;;;;;;;;;5073087;28;20022;-75
2022/10/06 01:44:26;;;;;;;0.20;0.20;;;;;;;;;;5073316;28;20476;-76
2022/10/06 01:46:52;;;;;;;0.20;0.20;;;;;;;;;;5055483;28;20043;-75
2022/10/06 01:49:17;;;;;;;0.22;0.22;;;;;;;;;;5054250;28;20087;-74
2022/10/06 01:51:44;;;;;;;0.20;0.20;;;;;;;;;;5073020;28;20044;-74
2022/10/06 01:54:10;;;;;;;0.20;0.20;;;;;;;;;;5073020;28;20020;-75
2022/10/06 01:56:35;;;;;;;0.20;0.20;;;;;;;;;;5072689;28;20502;-74
2022/10/06 01:59:00;;;;;;;0.25;0.25;;;;;;;;;;5072928;28;20055;-75
2022/10/06 02:01:26;;;;;;;0.17;0.17;;;;;;;;;;5072762;28;20039;-75
2022/10/06 02:03:53;;;;;;;0.20;0.20;;;;;;;;;;5054522;28;20553;-74
2022/10/06 02:06:18;;;;;;;0.50;0.50;;;;;;;;;;5055255;28;20032;-75
2022/10/06 02:08:45;;;;;;;0.20;0.20;;;;;;;;;;5054927;28;20496;-74
2022/10/06 02:11:10;;;;;;;0.20;0.20;;;;;;;;;;5072797;28;20029;-75
2022/10/06 02:13:39;;;;;;;0.20;0.20;;;;;;;;;;5073144;28;20086;-75
2022/10/06 02:16:06;;;;;;;0.10;0.10;;;;;;;;;;5037527;28;20431;-75
2022/10/06 02:18:33;;;;;;;0.30;0.30;;;;;;;;;;5053658;28;20032;-75
2022/10/06 02:20:59;;;;;;;0.20;0.20;;;;;;;;;;5054815;28;20021;-74
2022/10/06 02:23:25;;;;;;;0.45;0.45;;;;;;;;;;5072622;28;20032;-75
2022/10/06 02:26:00;;;;;;;0.20;0.20;;;;;;;;;;5054870;28;20035;-75
2022/10/06 02:28:26;;;;;;;0.20;0.20;;;;;;;;;;5056434;28;20496;-75
2022/10/06 02:30:52;;;;;;;0.35;0.35;;;;;;;;;;5058398;28;20051;-75
2022/10/06 02:33:17;;;;;;;0.20;0.20;;;;;;;;;;5058790;28;20064;-76
2022/10/06 02:35:44;;;;;;;0.50;0.50;;;;;;;;;;5076270;28;20029;-75
2022/10/06 02:38:10;;;;;;;0.10;0.10;;;;;;;;;;5076366;28;20052;-75
2022/10/06 02:40:35;;;;;;;0.45;0.45;;;;;;;;;;5057920;28;20468;-74
2022/10/06 02:43:01;;;;;;;0.20;0.20;;;;;;;;;;5058536;28;20044;-75
2022/10/06 02:45:26;;;;;;;0.20;0.20;;;;;;;;;;5076665;28;20032;-76
2022/10/06 02:47:53;;;;;;;0.20;0.20;;;;;;;;;;5058643;28;20029;-76
2022/10/06 02:50:19;;;;;;;0.20;0.20;;;;;;;;;;5076297;28;20030;-75
2022/10/06 02:52:45;;;;;;;1.63;0.90;;;;;;;;;;5058237;28;20033;-74
2022/10/06 02:55:11;;;;;;;0.20;0.20;;;;;;;;;;5075755;28;20052;-74
2022/10/06 02:57:36;;;;;;;0.30;0.30;;;;;;;;;;5076020;28;20357;-75
2022/10/06 03:00:04;;;;;;;0.17;0.17;;;;;;;;;;5041631;28;20036;-77
2022/10/06 03:02:32;;;;;;;0.20;0.20;;;;;;;;;;5050602;28;20419;-76
2022/10/06 03:04:57;;;;;;;1.67;1.65;;;;;;;;;;5051911;28;20021;-76
2022/10/06 03:07:23;;;;;;;0.20;0.20;;;;;;;;;;5052629;28;20037;-75
2022/10/06 03:09:48;;;;;;;0.15;0.15;;;;;;;;;;5034164;28;20035;-76
2022/10/06 03:12:14;;;;;;;0.20;0.20;;;;;;;;;;5034603;28;20058;-75
2022/10/06 03:14:42;;;;;;;0.20;0.20;;;;;;;;;;5032842;28;20116;-74
2022/10/06 03:17:08;;;;;;;0.20;0.20;;;;;;;;;;5033368;28;20128;-76
2022/10/06 03:19:37;;;;;;;0.20;0.20;;;;;;;;;;5033852;28;20036;-75
2022/10/06 03:22:04;;;;;;;0.20;0.20;;;;;;;;;;5051692;28;20029;-75
2022/10/06 03:24:37;;;;;;;0.20;0.20;;;;;;;;;;5033645;28;20571;-75
2022/10/06 03:27:03;;;;;;;0.20;0.20;;;;;;;;;;5051927;28;20369;-76
2022/10/06 03:29:29;;;;;;;0.52;0.52;;;;;;;;;;5033599;28;20038;-73
2022/10/06 03:31:55;;;;;;;0.30;0.30;;;;;;;;;;5051000;28;20432;-77
2022/10/06 03:34:22;;;;;;;0.28;0.28;;;;;;;;;;5016276;28;20033;-76
2022/10/06 03:36:48;;;;;;;0.20;0.20;;;;;;;;;;5032201;28;20044;-76
2022/10/06 03:39:17;;;;;;;0.20;0.20;;;;;;;;;;5031753;28;20055;-74
2022/10/06 03:41:43;;;;;;;0.20;0.20;;;;;;;;;;5050095;28;20481;-75
2022/10/06 03:44:09;;;;;;;0.20;0.20;;;;;;;;;;5032830;28;20017;-75
2022/10/06 03:46:36;;;;;;;3.10;3.00;;;;;;;;;;5033669;28;20090;-76
2022/10/06 03:49:05;;;;;;;0.22;0.22;;;;;;;;;;5033140;28;20029;-76
2022/10/06 03:51:32;;;;;;;0.20;0.20;;;;;;;;;;5033151;28;20044;-74
2022/10/06 03:53:58;;;;;;;0.20;0.20;;;;;;;;;;5033636;28;20013;-70
2022/10/06 03:56:24;;;;;;;0.20;0.20;;;;;;;;;;5033694;28;20029;-75
2022/10/06 03:58:54;;;;;;;0.20;0.20;;;;;;;;;;5016731;28;20062;-75
2022/10/06 04:01:27;;;;;;;0.20;0.20;;;;;;;;;;5051271;28;20060;-75
2022/10/06 04:03:54;;;;;;;0.20;0.20;;;;;;;;;;5033018;28;20056;-75
2022/10/06 04:06:20;;;;;;;0.20;0.20;;;;;;;;;;5050663;28;20029;-76
2022/10/06 04:08:47;;;;;;;0.20;0.20;;;;;;;;;;5032810;28;20029;-75
2022/10/06 04:11:19;;;;;;;0.30;0.30;;;;;;;;;;5033115;28;20021;-74
2022/10/06 04:13:46;;;;;;;1.17;1.17;;;;;;;;;;5051001;28;20029;-74
2022/10/06 04:16:15;;;;;;;0.20;0.20;;;;;;;;;;5032891;28;20075;-74
2022/10/06 04:18:42;;;;;;;0.10;0.10;;;;;;;;;;5016355;28;20036;-73
2022/10/06 04:21:08;;;;;;;0.20;0.20;;;;;;;;;;5050957;28;20107;-75
2022/10/06 04:23:35;;;;;;;0.20;0.20;;;;;;;;;;5050376;28;20485;-75
2022/10/06 04:26:02;;;;;;;0.10;0.10;;;;;;;;;;5051026;28;20032;-75
2022/10/06 04:28:28;;;;;;;0.20;0.20;;;;;;;;;;5050487;28;20067;-74
2022/10/06 04:30:57;;;;;;;0.10;0.10;;;;;;;;;;5032491;28;20994;-74
2022/10/06 04:33:23;;;;;;;0.38;0.38;;;;;;;;;;5032693;28;20032;-77
2022/10/06 04:35:58;;;;;;;0.50;0.50;;;;;;;;;;5050560;28;20083;-78
2022/10/06 04:38:24;;;;;;;0.20;0.20;;;;;;;;;;5033268;28;20083;-80
2022/10/06 04:40:50;;;;;;;0.10;0.10;;;;;;;;;;5050434;28;20029;-79
2022/10/06 04:43:16;;;;;;;0.20;0.20;;;;;;;;;;5032584;28;20094;-79
2022/10/06 04:45:42;;;;;;;0.20;0.20;;;;;;;;;;5050379;28;20748;-78
2022/10/06 04:48:07;;;;;;;0.77;0.77;;;;;;;;;;5050181;28;20032;-80
2022/10/06 04:50:33;;;;;;;0.20;0.20;;;;;;;;;;5032214;28;20384;-71
2022/10/06 04:53:04;;;;;;;0.17;0.17;;;;;;;;;;5049901;28;20021;-76
2022/10/06 04:55:30;;;;;;;0.20;0.20;;;;;;;;;;5015873;28;20139;-76
2022/10/06 04:57:56;;;;;;;0.15;0.15;;;;;;;;;;5015669;28;20131;-75
2022/10/06 05:00:21;;;;;;;0.10;0.10;;;;;;;;;;5050193;28;20048;-75
2022/10/06 05:02:47;;;;;;;1.20;1.20;;;;;;;;;;5032012;28;20476;-74
2022/10/06 05:05:13;;;;;;;0.52;0.52;;;;;;;;;;5032160;28;20127;-75
2022/10/06 05:07:40;;;;;;;0.40;0.40;;;;;;;;;;5050043;28;20203;-76
2022/10/06 05:10:06;;;;;;;0.20;0.20;;;;;;;;;;5049955;28;20051;-74
2022/10/06 05:12:32;;;;;;;0.20;0.20;;;;;;;;;;5050048;28;20109;-73
2022/10/06 05:14:57;;;;;;;0.10;0.10;;;;;;;;;;5032190;28;20476;-78
2022/10/06 05:17:23;;;;;;;0.20;0.20;;;;;;;;;;5049360;28;20476;-76
2022/10/06 05:19:50;;;;;;;1.00;0.95;;;;;;;;;;5031403;28;20357;-76
2022/10/06 05:22:15;;;;;;;0.10;0.10;;;;;;;;;;5032113;28;20053;-75
2022/10/06 05:24:43;;;;;;;0.20;0.20;;;;;;;;;;5030558;28;20112;-75
2022/10/06 05:27:09;;;;;;;0.15;0.15;;;;;;;;;;5030305;28;20056;-78
2022/10/06 05:29:35;;;;;;;0.32;0.32;;;;;;;;;;5048943;28;20056;-74
2022/10/06 05:32:03;;;;;;;0.30;0.30;;;;;;;;;;5031092;28;20043;-74
2022/10/06 05:34:30;;;;;;;0.85;0.85;;;;;;;;;;5014675;28;20033;-75
2022/10/06 05:36:55;;;;;;;0.85;0.40;;;;;;;;;;5048658;28;20029;-74
2022/10/06 05:39:21;;;;;;;0.20;0.20;;;;;;;;;;5049694;28;20045;-75
2022/10/06 05:41:54;;;;;;;0.20;0.20;;;;;;;;;;5031438;28;20029;-77
2022/10/06 05:44:19;;;;;;;0.10;0.10;;;;;;;;;;5029683;28;20039;-72
2022/10/06 05:46:45;;;;;;;0.20;0.20;;;;;;;;;;5047468;28;20056;-76
2022/10/06 05:49:12;;;;;;;0.10;0.10;;;;;;;;;;5029538;28;20366;-75
2022/10/06 05:51:42;;;;;;;0.15;0.15;;;;;;;;;;5029564;28;20064;-75
2022/10/06 05:54:13;;;;;;;0.60;0.60;;;;;;;;;;5029296;28;20480;-76
2022/10/06 05:56:39;;;;;;;14.43;4.82;;;;;;;;;;5047585;28;20044;-73
2022/10/06 05:59:06;;;;;;;0.20;0.20;;;;;;;;;;5030493;28;20040;-75
2022/10/06 06:01:36;;;;;;;0.10;0.10;;;;;;;;;;5049254;28;20040;-75
2022/10/06 06:04:08;;;;;;;0.10;0.10;;;;;;;;;;5052139;28;20079;-75
2022/10/06 06:06:39;;;;;;;0.10;0.10;;;;;;;;;;5053630;28;20099;-80
2022/10/06 06:09:13;;;;;;;1.38;1.38;;;;;;;;;;5035604;28;20086;-72
2022/10/06 06:11:41;;;;;;;0.20;0.20;;;;;;;;;;5036209;28;20487;-76
2022/10/06 06:14:08;;;;;;;0.20;0.20;;;;;;;;;;5053289;28;20086;-74
2022/10/06 06:16:35;;;;;;;0.20;0.20;;;;;;;;;;5053253;28;20132;-78
2022/10/06 06:19:01;;;;;;;0.20;0.20;;;;;;;;;;5034996;28;20085;-78
2022/10/06 06:21:28;;;;;;;0.10;0.10;;;;;;;;;;5052847;28;20055;-77
2022/10/06 06:23:54;;;;;;;0.30;0.30;;;;;;;;;;5035137;28;20029;-76
2022/10/06 06:26:24;;;;;;;0.10;0.10;;;;;;;;;;5035267;28;20136;-75
2022/10/06 06:28:51;;;;;;;0.20;0.20;;;;;;;;;;5034881;28;20484;-75
2022/10/06 06:31:22;;;;;;;0.65;0.65;;;;;;;;;;5018924;28;20091;-75
2022/10/06 06:33:56;;;;;;;0.15;0.15;;;;;;;;;;5018980;28;20120;-75
2022/10/06 06:36:29;;;;;;;0.22;0.22;;;;;;;;;;5035249;28;20482;-77
2022/10/06 06:38:55;;;;;;;0.20;0.20;;;;;;;;;;5052058;28;20036;-75
2022/10/06 06:41:23;;;;;;;0.20;0.20;;;;;;;;;;5035504;28;20103;-75
2022/10/06 06:43:52;;;;;;;0.20;0.20;;;;;;;;;;5035490;28;20045;-76
2022/10/06 06:46:37;;;;;;;0.20;0.20;;;;;;;;;;5034804;28;20033;-76
2022/10/06 06:49:08;;;;;;;0.20;0.20;;;;;;;;;;5034895;28;20064;-74
2022/10/06 06:51:39;;;;;;;0.20;0.20;;;;;;;;;;5034861;28;20168;-74
2022/10/06 06:54:05;;;;;;;0.20;0.20;;;;;;;;;;5052147;28;20033;-74
2022/10/06 06:56:37;;;;;;;0.30;0.30;;;;;;;;;;5035004;28;20067;-73
2022/10/06 06:59:09;;;;;;;1.88;1.17;;;;;;;;;;5034704;28;20041;-73
2022/10/06 07:01:35;;;;;;;0.20;0.20;;;;;;;;;;5052505;28;20029;-75
2022/10/06 07:04:01;;;;;;;0.30;0.30;;;;;;;;;;5034442;28;20388;-74
2022/10/06 07:06:31;;;;;;;0.20;0.20;;;;;;;;;;5034274;28;20028;-76
2022/10/06 07:08:59;;;;;;;0.63;0.63;;;;;;;;;;5034128;28;20036;-74
2022/10/06 07:11:38;;;;;;;0.40;0.40;;;;;;;;;;5052220;28;20025;-74
2022/10/06 07:14:08;;;;;;;0.20;0.20;;;;;;;;;;5034006;28;20044;-76
2022/10/06 07:25:07;;;;;;;0.30;0.30;;;;;;;;;;5034081;28;20484;-75
2022/10/06 07:27:41;;;;;;;0.20;0.20;;;;;;;;;;5052434;28;20367;-75
2022/10/06 07:30:19;;;;;;;0.85;0.85;;;;;;;;;;5051843;28;20464;-76
2022/10/06 07:32:49;;;;;;;0.30;0.30;;;;;;;;;;5018346;28;20107;-74
2022/10/06 07:35:20;;;;;;;7.38;6.82;;;;;;;;;;5051410;28;20540;-74
2022/10/06 07:37:47;;;;;;;0.25;0.25;;;;;;;;;;5033977;28;20031;-74
2022/10/06 07:40:13;;;;;;;0.20;0.20;;;;;;;;;;5051412;28;20033;-75
2022/10/06 07:42:50;;;;;;;0.17;0.17;;;;;;;;;;5033701;28;20037;-76
2022/10/06 07:45:37;;;;;;;4.75;4.50;;;;;;;;;;5033710;28;20452;-76
2022/10/06 07:48:05;;;;;;;0.30;0.30;;;;;;;;;;5017264;28;20051;-77
2022/10/06 07:50:31;;;;;;;0.20;0.20;;;;;;;;;;5033390;28;20040;-75
2022/10/06 07:52:56;;;;;;;0.20;0.20;;;;;;;;;;5033517;28;20029;-78
2022/10/06 07:55:22;;;;;;;0.20;0.20;;;;;;;;;;5050162;28;20075;-74
2022/10/06 07:58:14;;;;;;;0.20;0.20;;;;;;;;;;5032450;28;20032;-73
2022/10/06 08:00:40;;;;;;;0.40;0.40;;;;;;;;;;5033235;28;20873;-74
2022/10/06 08:03:06;;;;;;;0.20;0.20;;;;;;;;;;5050127;28;20067;-73
2022/10/06 08:05:31;;;;;;;0.20;0.20;;;;;;;;;;5050889;28;20136;-74
2022/10/06 08:07:57;;;;;;;0.30;0.30;;;;;;;;;;5027161;28;20079;-75
2022/10/06 08:10:24;;;;;;;0.20;0.20;;;;;;;;;;5066350;28;20033;-73
2022/10/06 08:12:51;;;;;;;0.30;0.30;;;;;;;;;;5051995;28;20056;-75
2022/10/06 08:15:17;;;;;;;0.20;0.20;;;;;;;;;;5070627;28;20063;-76
2022/10/06 08:17:42;;;;;;;0.20;0.20;;;;;;;;;;5052465;28;20464;-74
2022/10/06 08:20:09;;;;;;;0.20;0.20;;;;;;;;;;5070469;28;20533;-73
2022/10/06 08:22:35;;;;;;;0.30;0.30;;;;;;;;;;5070507;28;20402;-74
2022/10/06 08:25:01;;;;;;;0.30;0.30;;;;;;;;;;5052385;28;20103;-74
2022/10/06 08:27:27;;;;;;;0.20;0.20;;;;;;;;;;5069354;28;20056;-75
2022/10/06 08:29:53;;;;;;;0.30;0.30;;;;;;;;;;5052670;28;20032;-74
2022/10/06 08:32:19;;;;;;;0.20;0.20;;;;;;;;;;5052438;28;20561;-75
2022/10/06 08:34:45;;;;;;;0.28;0.28;;;;;;;;;;5051793;28;20096;-76
2022/10/06 08:37:10;;;;;;;0.20;0.20;;;;;;;;;;5070204;28;20107;-75
2022/10/06 08:39:36;;;;;;;0.20;0.20;;;;;;;;;;5069970;28;20032;-75
2022/10/06 08:42:02;;;;;;;0.20;0.20;;;;;;;;;;5052559;28;20870;-75
2022/10/06 08:44:29;;;;;;;0.28;0.28;;;;;;;;;;5070755;28;20040;-75
2022/10/06 08:46:54;;;;;;;0.20;0.20;;;;;;;;;;5051779;28;20025;-75
2022/10/06 08:49:21;;;;;;;0.20;0.20;;;;;;;;;;5070208;28;20039;-75
2022/10/06 08:51:52;;;;;;;0.20;0.20;;;;;;;;;;5069985;28;20032;-74
2022/10/06 08:54:31;;;;;;;0.20;0.20;;;;;;;;;;5035306;28;20040;-74
2022/10/06 08:57:04;;;;;;;0.22;0.22;;;;;;;;;;5069314;28;20013;-74
2022/10/06 08:59:33;;;;;;;0.63;0.63;;;;;;;;;;5069912;28;20028;-75
2022/10/06 09:01:58;;;;;;;0.30;0.30;;;;;;;;;;5069558;28;20021;-74
2022/10/06 09:04:28;;;;;;;0.20;0.20;;;;;;;;;;5051604;28;20036;-77
2022/10/06 09:07:02;;;;;;;0.60;0.60;;;;;;;;;;5069622;28;20211;-72
2022/10/06 09:09:37;;;;;;;0.20;0.20;;;;;;;;;;5069378;28;20032;-74
2022/10/06 09:12:02;;;;;;;0.20;0.20;;;;;;;;;;5069471;28;20029;-73
2022/10/06 09:14:55;;;;;;;0.35;0.35;;;;;;;;;;5051728;28;20036;-74
2022/10/06 09:17:26;;;;;;;0.40;0.40;;;;;;;;;;5066041;28;20059;-74
2022/10/06 09:19:55;;;;;;;0.40;0.40;;;;;;;;;;5051063;28;20029;-74
2022/10/06 09:22:21;;;;;;;0.20;0.20;;;;;;;;;;5069622;28;20044;-73
2022/10/06 09:24:50;;;;;;;0.20;0.20;;;;;;;;;;5069237;28;20031;-73
2022/10/06 09:27:20;;;;;;;0.17;0.17;;;;;;;;;;5051725;28;20376;-74
2022/10/06 09:29:49;;;;;;;0.20;0.20;;;;;;;;;;5069210;28;20024;-74
2022/10/06 09:32:15;;;;;;;0.38;0.38;;;;;;;;;;5068858;28;20036;-75
2022/10/06 09:34:51;;;;;;;0.20;0.20;;;;;;;;;;5069381;28;20044;-75
2022/10/06 09:37:17;;;;;;;0.40;0.40;;;;;;;;;;5069095;28;20060;-74
2022/10/06 09:39:44;;;;;;;0.30;0.30;;;;;;;;;;5068848;28;20056;-75
2022/10/06 09:42:09;;;;;;;0.30;0.30;;;;;;;;;;5068757;28;20448;-73
2022/10/06 09:44:50;;;;;;;0.20;0.20;;;;;;;;;;5068771;28;20119;-75
2022/10/06 09:47:27;;;;;;;0.30;0.30;;;;;;;;;;5068906;28;20107;-76
2022/10/06 09:50:02;;;;;;;0.40;0.40;;;;;;;;;;5050946;28;20029;-76
2022/10/06 09:52:28;;;;;;;0.30;0.30;;;;;;;;;;5068353;28;20160;-76
2022/10/06 09:55:03;;;;;;;1.65;1.63;;;;;;;;;;5068689;28;20024;-74
2022/10/06 09:57:30;;;;;;;5.07;2.38;;;;;;;;;;5068297;28;20468;-75
2022/10/06 09:59:58;;;;;;;0.38;0.38;;;;;;;;;;5069023;28;20024;-76
2022/10/06 10:02:37;;;;;;;0.50;0.50;;;;;;;;;;5068908;28;20357;-75
2022/10/06 10:05:07;;;;;;;0.30;0.30;;;;;;;;;;5034378;28;20142;-76
2022/10/06 10:07:33;;;;;;;0.28;0.28;;;;;;;;;;5051015;28;20036;-76
2022/10/06 10:10:17;;;;;;;0.30;0.30;;;;;;;;;;5068299;28;20442;-75
2022/10/06 10:12:50;;;;;;;0.30;0.30;;;;;;;;;;5066398;28;20483;-75
2022/10/06 10:15:19;;;;;;;0.30;0.30;;;;;;;;;;5031395;28;20511;-75
2022/10/06 10:17:56;;;;;;;0.40;0.40;;;;;;;;;;5049233;28;20057;-74
2022/10/06 10:20:24;;;;;;;0.30;0.30;;;;;;;;;;5048129;28;20043;-69
2022/10/06 10:23:12;;;;;;;0.33;0.33;;;;;;;;;;5048573;28;20072;-67
2022/10/06 10:25:43;;;;;;;0.40;0.40;;;;;;;;;;5036133;28;20084;-68
2022/10/06 10:28:22;;;;;;;0.30;0.30;;;;;;;;;;5031393;28;20068;-68
2022/10/06 10:30:52;;;;;;;2.70;0.80;;;;;;;;;;5048693;28;20035;-68
2022/10/06 10:33:25;;;;;;;0.20;0.20;;;;;;;;;;5048947;28;20032;-69
2022/10/06 10:35:53;;;;;;;1.13;0.90;;;;;;;;;;5049185;28;20025;-71
2022/10/06 10:38:19;;;;;;;0.22;0.22;;;;;;;;;;5048747;28;20029;-69
2022/10/06 10:40:55;;;;;;;0.30;0.30;;;;;;;;;;5048781;28;20029;-69
2022/10/06 10:43:23;;;;;;;0.35;0.35;;;;;;;;;;5048887;28;20029;-69
2022/10/06 10:46:02;;;;;;;0.30;0.30;;;;;;;;;;5049199;28;20027;-69
2022/10/06 10:48:29;;;;;;;;;;;;;;;;;;5049216;28;20033;-69
2022/10/06 10:51:12;;;;;;;0.40;0.40;;;;;;;;;;5034264;28;19917;-69
2022/10/06 10:53:48;;;;;;;0.50;0.50;;;;;;;;;;5052327;28;20033;-68
2022/10/06 10:56:16;;;;;;;0.60;0.60;;;;;;;;;;5052541;28;20174;-69
2022/10/06 10:58:43;;;;;;;0.30;0.30;;;;;;;;;;5034702;28;20033;-69
2022/10/06 11:01:16;;;;;;;0.30;0.30;;;;;;;;;;5034981;28;20029;-69
2022/10/06 11:03:42;;;;;;;0.28;0.28;;;;;;;;;;5052636;28;20033;-69
2022/10/06 11:06:25;;;;;;;0.50;0.50;;;;;;;;;;5052056;28;20037;-69
2022/10/06 11:09:03;;;;;;;0.28;0.28;;;;;;;;;;5052455;28;20032;-69
2022/10/06 11:11:31;;;;;;;0.30;0.30;;;;;;;;;;5051997;28;20029;-69
2022/10/06 11:13:58;;;;;;;0.40;0.40;;;;;;;;;;5052008;28;20381;-69
2022/10/06 11:16:30;;;;;;;0.30;0.30;;;;;;;;;;5034163;28;20927;-69
2022/10/06 11:18:56;;;;;;;7.97;2.85;;;;;;;;;;5033759;28;20039;-69
2022/10/06 11:21:40;;;;;;;0.40;0.40;;;;;;;;;;5034124;28;20457;-69
2022/10/06 11:24:24;;;;;;;1.45;1.10;;;;;;;;;;5051989;28;20131;-70
2022/10/06 11:27:08;;;;;;;3.50;3.15;;;;;;;;;;5033591;28;20440;-69
2022/10/06 11:29:39;;;;;;;0.45;0.45;;;;;;;;;;5051444;28;20037;-69
2022/10/06 11:32:20;;;;;;;1.13;0.77;;;;;;;;;;5051788;28;20057;-69
2022/10/06 11:34:49;;;;;;;9.57;1.88;;;;;;;;;;5051757;28;20033;-69
2022/10/06 11:37:33;;;;;;;0.30;0.30;;;;;;;;;;5051747;28;20420;-69
2022/10/06 11:40:19;;;;;;;1.52;1.02;;;;;;;;;;5033749;28;20025;-69
2022/10/06 11:42:49;;;;;;;0.30;0.30;;;;;;;;;;5051366;28;20049;-69
2022/10/06 11:45:16;;;;;;;1.02;0.93;;;;;;;;;;5033714;28;20485;-69
2022/10/06 11:48:00;;;;;;;1.38;1.27;;;;;;;;;;5051921;28;20063;-69
2022/10/06 11:50:32;;;;;;;0.25;0.25;;;;;;;;;;5033219;28;20060;-71
2022/10/06 11:52:58;;;;;;;1.08;1.00;;;;;;;;;;5033411;28;20070;-69
2022/10/06 11:55:25;;;;;;;2.97;2.78;;;;;;;;;;5051044;28;20017;-69
2022/10/06 11:58:23;;;;;;;4.35;1.83;;;;;;;;;;5051283;28;20602;-70
2022/10/06 12:00:48;;;;;;;0.20;0.20;;;;;;;;;;4994979;28;20376;-70
2022/10/06 12:03:32;;;;;;;4.18;2.05;;;;;;;;;;5033223;28;20058;-69
2022/10/06 12:05:58;;;;;;;3.95;1.23;;;;;;;;;;5051002;28;20420;-69
2022/10/06 12:08:33;;;;;;;1.17;1.08;;;;;;;;;;5033141;28;20072;-69
2022/10/06 12:10:58;;;;;;;0.40;0.40;;;;;;;;;;5033111;28;20040;-69
2022/10/06 12:13:30;;;;;;;0.50;0.50;;;;;;;;;;5032776;28;20040;-69
2022/10/06 12:16:15;;;;;;;0.30;0.30;;;;;;;;;;5050804;28;20682;-69
2022/10/06 12:19:04;;;;;;;0.70;0.70;;;;;;;;;;5032911;28;20797;-68
2022/10/06 12:21:49;;;;;;;0.30;0.30;;;;;;;;;;5037474;28;20040;-68
2022/10/06 12:24:23;;;;;;;3.15;0.95;;;;;;;;;;5050895;28;20041;-69
2022/10/06 12:26:56;;;;;;;0.98;0.73;;;;;;;;;;5050078;28;20083;-69
2022/10/06 12:29:34;;;;;;;1.42;1.20;;;;;;;;;;5050627;28;20051;-70
2022/10/06 12:32:10;;;;;;;1.70;0.63;;;;;;;;;;5050945;28;20115;-68
2022/10/06 12:34:39;;;;;;;0.60;0.50;;;;;;;;;;5052984;28;20435;-70
2022/10/06 12:37:23;;;;;;;2.70;0.77;;;;;;;;;;5070442;28;20017;-70
2022/10/06 12:39:49;;;;;;;3.25;2.58;;;;;;;;;;5069721;28;20460;-70
2022/10/06 12:42:23;;;;;;;0.30;0.30;;;;;;;;;;5070322;28;20090;-69
2022/10/06 12:44:50;;;;;;;3.47;1.60;;;;;;;;;;5069723;28;20030;-69
2022/10/06 12:47:20;;;;;;;0.57;0.57;;;;;;;;;;5070350;28;20111;-69
2022/10/06 12:49:55;;;;;;;2.25;1.10;;;;;;;;;;5065137;28;20041;-70
2022/10/06 12:52:33;;;;;;;4.05;1.38;;;;;;;;;;5049008;28;20037;-70
2022/10/06 12:55:05;;;;;;;0.82;0.82;;;;;;;;;;5049427;28;20029;-69
2022/10/06 12:57:43;;;;;;;2.90;1.98;;;;;;;;;;5031998;28;20032;-70
2022/10/06 13:00:20;;;;;;;1.55;0.80;;;;;;;;;;5049565;28;20040;-69
2022/10/06 13:02:46;;;;;;;2.22;1.23;;;;;;;;;;5048883;28;20041;-71
2022/10/06 13:05:12;;;;;;;2.30;0.88;;;;;;;;;;5048931;28;20366;-69
2022/10/06 13:07:54;;;;;;;0.22;0.22;;;;;;;;;;5049706;28;20056;-70
2022/10/06 13:10:20;;;;;;;2.75;1.85;;;;;;;;;;5049703;28;20037;-70
2022/10/06 13:12:48;;;;;;;3.53;0.98;;;;;;;;;;5048915;28;20020;-69
2022/10/06 13:15:14;;;;;;;1.70;1.35;;;;;;;;;;5049721;28;20039;-69
2022/10/06 13:17:41;;;;;;;2.05;1.35;;;;;;;;;;5049222;28;20049;-70
2022/10/06 13:20:16;;;;;;;0.30;0.30;;;;;;;;;;5049317;28;20036;-69
2022/10/06 13:22:42;;;;;;;3.75;2.13;;;;;;;;;;5048780;28;20384;-69
2022/10/06 13:25:11;;;;;;;0.80;0.68;;;;;;;;;;5049419;28;20040;-70
2022/10/06 13:27:38;;;;;;;5.63;2.60;;;;;;;;;;5049165;28;20032;-71
2022/10/06 13:30:20;;;;;;;1.88;1.33;;;;;;;;;;5049217;28;20031;-72
2022/10/06 13:32:46;;;;;;;2.83;1.27;;;;;;;;;;5048624;28;20074;-70
2022/10/06 13:35:12;;;;;;;1.40;1.30;;;;;;;;;;5049105;28;20035;-70
2022/10/06 13:37:38;;;;;;;3.13;1.60;;;;;;;;;;5048830;28;20029;-70
2022/10/06 13:40:27;;;;;;;3.45;1.35;;;;;;;;;;5048846;28;20049;-71
2022/10/06 13:42:54;;;;;;;5.80;2.53;;;;;;;;;;5023160;28;20068;-70
2022/10/06 13:45:19;;;;;;;6.60;2.33;;;;;;;;;;5030756;28;20032;-69
2022/10/06 13:47:45;;;;;;;6.72;1.92;;;;;;;;;;5031552;28;20025;-69
2022/10/06 13:50:16;;;;;;;1.98;1.52;;;;;;;;;;5031359;28;20063;-69
2022/10/06 13:52:45;;;;;;;2.92;1.67;;;;;;;;;;5049058;28;20079;-69
2022/10/06 13:55:26;;;;;;;6.25;1.83;;;;;;;;;;5058163;28;20045;-71
2022/10/06 13:58:01;;;;;;;1.60;1.20;;;;;;;;;;5068615;28;20028;-69
2022/10/06 14:00:30;;;;;;;1.20;1.10;;;;;;;;;;5069424;28;20028;-70
2022/10/06 14:03:07;;;;;;;4.63;2.85;;;;;;;;;;5068953;28;20503;-69
2022/10/06 14:05:36;;;;;;;1.80;1.45;;;;;;;;;;5069113;28;20029;-70
2022/10/06 14:08:08;;;;;;;3.67;1.80;;;;;;;;;;5068962;28;20079;-69
2022/10/06 14:10:39;;;;;;;3.08;1.20;;;;;;;;;;5068815;28;20402;-69
2022/10/06 14:13:06;;;;;;;0.20;0.20;;;;;;;;;;5031279;28;20392;-69
2022/10/06 14:15:36;;;;;;;0.85;0.63;;;;;;;;;;5054896;28;20100;-68
2022/10/06 14:18:03;;;;;;;0.60;0.60;;;;;;;;;;5052303;28;20128;-68
2022/10/06 14:20:34;;;;;;;1.95;1.08;;;;;;;;;;5046855;28;20181;-68
2022/10/06 14:23:00;;;;;;;4.68;1.00;;;;;;;;;;5046282;28;20029;-69
2022/10/06 14:25:25;;;;;;;0.20;0.20;;;;;;;;;;5049997;28;20388;-68
2022/10/06 14:27:51;;;;;;;1.42;1.08;;;;;;;;;;5051369;28;20037;-75
2022/10/06 14:30:16;;;;;;;3.60;1.30;;;;;;;;;;5050921;28;20527;-75
2022/10/06 14:32:42;;;;;;;1.63;1.15;;;;;;;;;;5050881;28;20033;-76
2022/10/06 14:35:10;;;;;;;1.38;0.65;;;;;;;;;;5052871;28;20025;-79
2022/10/06 14:37:35;;;;;;;0.22;0.22;;;;;;;;;;5050260;28;20108;-78
2022/10/06 14:40:01;;;;;;;0.40;0.40;;;;;;;;;;5032923;28;20370;-73
2022/10/06 14:42:26;;;;;;;2.10;1.02;;;;;;;;;;5050270;28;20041;-71
2022/10/06 14:44:51;;;;;;;0.40;0.40;;;;;;;;;;5050435;28;20536;-72
2022/10/06 14:47:17;;;;;;;0.20;0.20;;;;;;;;;;5050459;28;20040;-74
2022/10/06 14:49:44;;;;;;;1.13;0.93;;;;;;;;;;5050346;28;20025;-73
2022/10/06 14:52:10;;;;;;;1.25;1.15;;;;;;;;;;5051490;28;20025;-73
2022/10/06 14:54:36;;;;;;;0.20;0.20;;;;;;;;;;5052201;28;20037;-71
2022/10/06 14:57:02;;;;;;;0.40;0.40;;;;;;;;;;5052043;28;20045;-73
2022/10/06 14:59:27;;;;;;;0.55;0.32;;;;;;;;;;5034287;28;20019;-73
2022/10/06 15:01:53;;;;;;;1.67;0.77;;;;;;;;;;5051995;28;20033;-73
2022/10/06 15:04:19;;;;;;;0.43;0.43;;;;;;;;;;5052078;28;20032;-75